Time;durP1;ratioP1;P1;durP2;ratioP2;P2;SDS_P1;SDS_P2;PMS_P1;PMS_P2;Temp;Humidity;BMP_temperature;BMP_pressure;BME280_temperature;BME280_humidity;BME280_pressure;Samples;Min_cycle;Max_cycle;Signal;HPM_P1;HPM_P2
2023/04/04 00:00:40;;;;;;;3.97;1.73;;;2.10;53.30;;;5.50;37.74;98414.09;5062426;28;20041;-44
2023/04/04 00:03:08;;;;;;;5.67;1.73;;;2.00;53.50;;;5.48;37.47;98408.06;5062997;28;20040;-45
2023/04/04 00:05:35;;;;;;;3.83;2.00;;;2.00;53.30;;;5.46;37.86;98407.34;5061077;28;20036;-47
2023/04/04 00:08:03;;;;;;;2.23;1.90;;;2.00;53.50;;;5.43;37.92;98404.91;5060006;28;20057;-43
2023/04/04 00:10:31;;;;;;;3.90;2.10;;;2.00;53.60;;;5.39;37.62;98401.66;5041517;28;20348;-43
2023/04/04 00:12:58;;;;;;;3.70;1.80;;;2.00;53.50;;;5.36;37.52;98403.69;5062838;28;20051;-47
2023/04/04 00:15:26;;;;;;;3.67;1.90;;;1.90;53.60;;;5.33;37.90;98400.31;5062451;28;20036;-45
2023/04/04 00:17:53;;;;;;;2.80;1.90;;;1.90;53.90;;;5.31;38.31;98401.34;5059569;28;20056;-46
2023/04/04 00:20:21;;;;;;;4.53;2.07;;;1.90;53.90;;;5.26;38.05;98392.94;5059752;28;20051;-44
2023/04/04 00:22:48;;;;;;;2.27;1.80;;;1.80;54.30;;;5.23;38.28;98398.41;5051310;28;20038;-44
2023/04/04 00:25:16;;;;;;;3.37;2.20;;;1.70;54.60;;;5.19;38.42;98396.94;5059295;28;20505;-45
2023/04/04 00:27:44;;;;;;;5.87;2.10;;;1.70;55.10;;;5.16;38.22;98394.50;5061596;28;20048;-43
2023/04/04 00:30:12;;;;;;;3.43;1.80;;;1.60;55.10;;;5.11;38.50;98393.03;5063001;28;20051;-44
2023/04/04 00:32:40;;;;;;;3.13;1.50;;;1.60;55.20;;;5.09;38.15;98386.19;5058365;28;20053;-43
2023/04/04 00:35:08;;;;;;;4.17;1.93;;;1.60;55.30;;;5.06;38.52;98386.41;5057089;28;20395;-45
2023/04/04 00:37:36;;;;;;;2.83;1.80;;;1.50;55.60;;;5.01;38.39;98383.28;5061040;28;20045;-45
2023/04/04 00:40:04;;;;;;;8.27;2.10;;;1.50;56.00;;;4.99;38.82;98391.28;5062810;28;20080;-46
2023/04/04 00:42:33;;;;;;;2.07;1.50;;;1.50;56.20;;;4.98;38.67;98379.03;5060728;28;20044;-47
2023/04/04 00:45:01;;;;;;;2.93;1.50;;;1.50;55.90;;;4.95;39.28;98375.78;5032679;28;20041;-44
2023/04/04 00:47:30;;;;;;;4.07;2.00;;;1.50;56.20;;;4.90;39.18;98376.09;5058259;28;20044;-46
2023/04/04 00:49:58;;;;;;;3.63;1.57;;;1.40;56.10;;;4.89;39.61;98379.69;5044393;28;20041;-46
2023/04/04 00:52:26;;;;;;;2.50;1.70;;;1.40;56.10;;;4.87;38.69;98374.53;5061841;28;20044;-44
2023/04/04 00:54:56;;;;;;;2.13;1.90;;;1.40;56.10;;;4.87;39.22;98376.31;5057425;28;20048;-44
2023/04/04 00:57:24;;;;;;;5.50;1.90;;;1.40;56.60;;;4.87;38.85;98371.03;5059193;28;20052;-47
2023/04/04 00:59:52;;;;;;;3.70;1.80;;;1.40;56.00;;;4.86;38.83;98370.19;5044328;28;20420;-45
2023/04/04 01:02:20;;;;;;;3.43;1.80;;;1.40;56.20;;;4.81;39.24;98368.81;5044232;28;20048;-44
2023/04/04 01:04:47;;;;;;;2.90;1.73;;;1.30;56.50;;;4.78;39.44;98367.25;5057444;28;20454;-43
2023/04/04 01:07:15;;;;;;;4.30;2.00;;;1.30;57.00;;;4.74;39.30;98366.59;5059208;28;20050;-44
2023/04/04 01:09:43;;;;;;;5.10;2.20;;;1.20;57.20;;;4.70;39.37;98365.13;5060073;28;20517;-44
2023/04/04 01:12:11;;;;;;;2.93;1.70;;;1.10;57.70;;;4.65;39.80;98358.50;5060731;28;20049;-43
2023/04/04 01:14:39;;;;;;;4.57;2.13;;;1.10;58.90;;;4.61;39.94;98362.28;5058169;28;20057;-44
2023/04/04 01:17:07;;;;;;;4.20;2.17;;;1.10;58.20;;;4.58;40.11;98359.88;5057401;28;20395;-43
2023/04/04 01:19:55;;;;;;;3.47;1.80;;;1.10;58.60;;;4.54;39.54;98353.97;5048907;28;20048;-45
2023/04/04 01:22:23;;;;;;;1.57;1.30;;;1.10;58.30;;;4.56;40.02;98359.16;5038440;28;20045;-44
2023/04/04 01:24:54;;;;;;;3.03;1.80;;;1.00;58.00;;;4.56;40.31;98364.44;5045959;28;20049;-48
2023/04/04 01:27:22;;;;;;;1.93;1.43;;;1.10;58.10;;;4.56;39.68;98361.78;5053607;28;20048;-45
2023/04/04 01:29:55;;;;;;;3.47;1.67;;;1.10;57.80;;;4.53;39.93;98362.81;5057608;28;20045;-45
2023/04/04 01:32:42;;;;;;;3.83;1.70;;;1.10;57.80;;;4.52;39.97;98367.25;5056850;28;20425;-44
2023/04/04 01:35:42;;;;;;;3.90;2.00;;;1.10;57.90;;;4.50;39.90;98352.50;5052455;28;20045;-45
2023/04/04 01:38:26;;;;;;;3.50;1.80;;;1.20;57.90;;;4.58;40.05;98357.25;5051770;28;20044;-45
2023/04/04 01:41:02;;;;;;;2.22;1.45;;;1.20;57.60;;;4.57;39.86;98352.91;5038728;28;20041;-45
2023/04/04 01:43:32;;;;;;;2.53;1.57;;;1.20;57.60;;;4.58;40.19;98352.81;5061515;28;20044;-46
2023/04/04 01:46:02;;;;;;;3.57;1.57;;;1.20;57.30;;;4.57;39.69;98355.56;5064736;28;20033;-44
2023/04/04 01:48:29;;;;;;;5.47;1.83;;;1.20;57.40;;;4.57;39.94;98351.09;5038865;28;20067;-46
2023/04/04 01:51:02;;;;;;;3.27;1.73;;;1.20;57.50;;;4.54;39.83;98349.53;5060935;28;20033;-44
2023/04/04 01:53:30;;;;;;;2.53;1.80;;;1.10;57.70;;;4.54;39.98;98346.06;5057988;28;20041;-46
2023/04/04 01:55:58;;;;;;;3.50;2.20;;;1.10;58.10;;;4.51;39.75;98343.63;5065681;28;20067;-45
2023/04/04 01:58:26;;;;;;;4.50;1.67;;;1.10;58.20;;;4.49;40.03;98345.53;5066176;28;20040;-44
2023/04/04 02:00:53;;;;;;;4.50;2.23;;;1.00;58.30;;;4.47;39.89;98336.88;5033299;28;20046;-46
2023/04/04 02:03:21;;;;;;;2.30;1.57;;;1.00;58.30;;;4.45;40.49;98333.50;5056050;28;20044;-44
2023/04/04 02:05:49;;;;;;;4.27;1.63;;;0.90;58.70;;;4.40;40.29;98341.75;5065171;28;20047;-44
2023/04/04 02:08:16;;;;;;;3.27;1.80;;;0.90;58.90;;;4.38;40.66;98340.16;5063838;28;20048;-46
2023/04/04 02:10:50;;;;;;;2.70;1.75;;;0.90;58.40;;;4.37;40.20;98339.31;5060804;28;20045;-44
2023/04/04 02:13:18;;;;;;;5.67;1.70;;;0.90;58.90;;;4.39;40.31;98347.94;5061666;28;20040;-44
2023/04/04 02:15:50;;;;;;;3.37;1.60;;;0.90;58.60;;;4.39;40.45;98349.75;5063320;28;20501;-44
2023/04/04 02:18:19;;;;;;;4.43;1.87;;;1.00;58.50;;;4.34;40.54;98343.00;5065352;28;20040;-45
2023/04/04 02:20:53;;;;;;;4.53;2.00;;;0.90;58.50;;;4.33;40.28;98357.13;5061498;28;20051;-44
2023/04/04 02:23:20;;;;;;;6.50;2.60;;;0.90;58.60;;;4.32;40.28;98347.53;5061271;28;20454;-44
2023/04/04 02:25:51;;;;;;;3.60;2.03;;;0.90;58.40;;;4.30;40.30;98349.44;5064726;28;20040;-44
2023/04/04 02:28:19;;;;;;;3.30;1.93;;;0.80;58.50;;;4.26;40.83;98349.75;5065362;28;20040;-44
2023/04/04 02:30:48;;;;;;;4.00;2.00;;;0.80;58.60;;;4.26;40.37;98347.09;5062649;28;20041;-46
2023/04/04 02:33:16;;;;;;;3.50;1.80;;;0.80;58.60;;;4.24;40.33;98349.00;5040099;28;20042;-46
2023/04/04 02:35:44;;;;;;;2.17;1.60;;;0.70;58.70;;;4.21;40.50;98355.34;5060656;28;20049;-45
2023/04/04 02:38:11;;;;;;;3.97;2.13;;;0.70;58.70;;;4.12;40.61;98348.88;5063752;28;20052;-45
2023/04/04 02:40:45;;;;;;;3.88;1.80;;;0.60;59.30;;;4.10;40.56;98348.13;5061295;28;20574;-44
2023/04/04 02:43:12;;;;;;;8.50;3.10;;;0.60;59.50;;;4.06;40.64;98344.03;5061084;28;20409;-45
2023/04/04 02:45:41;;;;;;;2.13;1.50;;;0.60;59.70;;;4.06;41.27;98348.47;5061274;28;20055;-45
2023/04/04 02:48:20;;;;;;;3.93;1.80;;;0.60;59.90;;;4.03;40.88;98338.97;5063619;28;20051;-46
2023/04/04 02:50:50;;;;;;;4.37;2.30;;;0.50;59.90;;;4.01;40.57;98347.91;5059635;28;20049;-44
2023/04/04 02:53:18;;;;;;;4.33;2.27;;;0.50;60.10;;;3.97;41.17;98338.53;5059669;28;20045;-45
2023/04/04 02:55:48;;;;;;;4.50;2.80;;;0.50;60.30;;;3.96;41.59;98337.69;5061027;28;20422;-43
2023/04/04 02:58:16;;;;;;;3.77;2.10;;;0.50;60.50;;;3.94;41.02;98336.97;5046834;28;20433;-45
2023/04/04 03:00:45;;;;;;;3.23;1.90;;;0.40;59.60;;;3.93;41.28;98332.63;5062761;28;20044;-45
2023/04/04 03:03:13;;;;;;;6.57;1.80;;;0.50;60.50;;;3.92;41.40;98339.69;5039423;28;20052;-45
2023/04/04 03:05:44;;;;;;;2.67;1.80;;;0.40;60.10;;;3.90;41.23;98338.94;5059999;28;20049;-44
2023/04/04 03:08:12;;;;;;;4.63;1.80;;;0.40;60.50;;;3.88;41.38;98335.56;5064273;28;20036;-43
2023/04/04 03:10:39;;;;;;;2.33;1.53;;;0.40;60.30;;;3.86;41.21;98328.72;5062661;28;20041;-45
2023/04/04 03:13:07;;;;;;;2.87;1.70;;;0.30;60.60;;;3.82;41.18;98335.97;5060505;28;20488;-44
2023/04/04 03:15:35;;;;;;;4.40;2.30;;;0.30;61.20;;;3.80;41.53;98334.38;5059617;28;20136;-44
2023/04/04 03:18:03;;;;;;;2.27;1.67;;;0.30;61.10;;;3.79;41.11;98335.34;5062725;28;20060;-44
2023/04/04 03:20:32;;;;;;;3.20;1.87;;;0.20;61.00;;;3.75;41.49;98332.91;5046266;28;20041;-43
2023/04/04 03:23:00;;;;;;;2.13;1.70;;;0.20;61.60;;;3.69;41.56;98330.66;5060344;28;20494;-43
2023/04/04 03:25:27;;;;;;;2.50;1.57;;;0.20;62.10;;;3.65;41.82;98333.63;5039468;28;20045;-43
2023/04/04 03:27:55;;;;;;;2.57;1.50;;;0.10;62.10;;;3.64;41.56;98337.19;5063581;28;20497;-44
2023/04/04 03:30:25;;;;;;;1.53;1.43;;;0.00;62.10;;;3.62;41.93;98333.81;5046445;28;20127;-44
2023/04/04 03:32:54;;;;;;;5.13;1.90;;;0.00;62.50;;;3.58;41.54;98334.97;5043022;28;20045;-44
2023/04/04 03:35:21;;;;;;;3.47;2.20;;;0.00;62.50;;;3.54;41.76;98324.63;5060837;28;20033;-44
2023/04/04 03:37:49;;;;;;;3.43;2.03;;;0.00;62.10;;;3.53;41.77;98332.63;5062616;28;20045;-45
2023/04/04 03:40:17;;;;;;;3.80;2.07;;;0.00;62.40;;;3.50;41.90;98332.81;5063932;28;20041;-44
2023/04/04 03:42:44;;;;;;;4.80;2.10;;;-0.10;62.50;;;3.48;42.60;98324.19;5060228;28;20052;-44
2023/04/04 03:45:14;;;;;;;3.83;2.03;;;-0.10;62.70;;;3.48;41.78;98327.66;5060207;28;20044;-44
2023/04/04 03:47:43;;;;;;;4.73;2.17;;;-0.10;62.50;;;3.48;42.01;98324.19;5057537;28;20064;-44
2023/04/04 03:50:11;;;;;;;8.50;2.27;;;-0.10;62.30;;;3.49;41.81;98326.72;5062203;28;20493;-45
2023/04/04 03:52:46;;;;;;;6.00;3.03;;;0.00;61.90;;;3.52;41.80;98323.03;5060135;28;20044;-45
2023/04/04 03:55:14;;;;;;;6.70;3.40;;;0.00;61.60;;;3.52;41.93;98328.31;5060140;28;20044;-44
2023/04/04 03:57:41;;;;;;;7.13;4.10;;;0.00;61.40;;;3.50;41.43;98323.13;5059278;28;20529;-44
2023/04/04 04:00:11;;;;;;;6.50;4.00;;;0.00;61.80;;;3.52;41.82;98323.03;5062171;28;20053;-45
2023/04/04 04:02:39;;;;;;;5.13;2.80;;;0.00;61.70;;;3.48;41.58;98327.66;5061749;28;20520;-43
2023/04/04 04:05:09;;;;;;;7.23;3.37;;;-0.10;61.90;;;3.46;41.97;98331.34;5058133;28;20052;-43
2023/04/04 04:07:36;;;;;;;3.43;2.47;;;-0.10;61.80;;;3.43;41.86;98326.25;5058492;28;20052;-44
2023/04/04 04:10:05;;;;;;;4.80;2.80;;;-0.10;62.30;;;3.43;41.89;98331.53;5061963;28;20048;-44
2023/04/04 04:12:32;;;;;;;6.27;2.57;;;-0.10;62.10;;;3.43;42.29;98331.53;5062846;28;20044;-44
2023/04/04 04:15:00;;;;;;;4.67;3.20;;;-0.20;62.20;;;3.38;41.97;98329.19;5061147;28;20210;-43
2023/04/04 04:17:31;;;;;;;4.17;2.90;;;-0.10;62.00;;;3.38;41.86;98334.47;5061933;28;20040;-43
2023/04/04 04:19:59;;;;;;;4.80;2.73;;;-0.10;62.00;;;3.37;42.03;98334.56;5033364;28;20426;-45
2023/04/04 04:22:36;;;;;;;3.30;2.37;;;-0.10;62.10;;;3.35;41.91;98335.53;5057874;28;20040;-44
2023/04/04 04:25:04;;;;;;;4.57;2.73;;;-0.10;62.00;;;3.34;42.11;98336.44;5061641;28;20048;-43
2023/04/04 04:27:32;;;;;;;6.03;2.53;;;-0.20;61.40;;;3.34;42.00;98335.63;5061436;28;20060;-44
2023/04/04 04:30:00;;;;;;;6.80;2.97;;;-0.20;61.60;;;3.28;42.11;98341.28;5059598;28;20033;-44
2023/04/04 04:32:33;;;;;;;3.23;2.33;;;-0.30;61.40;;;3.23;41.95;98340.72;5057506;28;20060;-43
2023/04/04 04:35:01;;;;;;;3.07;2.10;;;-0.40;61.70;;;3.16;42.12;98345.53;5057881;28;20633;-44
2023/04/04 04:37:32;;;;;;;3.73;2.40;;;-0.50;62.20;;;3.10;42.04;98335.38;5058230;28;20052;-44
2023/04/04 04:40:01;;;;;;;3.33;1.90;;;-0.50;62.50;;;3.07;42.05;98346.94;5069299;28;20509;-43
2023/04/04 04:42:42;;;;;;;4.77;2.40;;;-0.60;62.50;;;3.04;42.07;98339.25;5060416;28;20049;-45
2023/04/04 04:45:10;;;;;;;2.83;2.53;;;-0.60;62.30;;;3.04;41.89;98341.03;5050779;28;20049;-43
2023/04/04 04:47:40;;;;;;;3.60;2.67;;;-0.60;62.30;;;3.03;42.25;98344.63;5058233;28;20288;-44
2023/04/04 04:50:10;;;;;;;5.40;2.83;;;-0.50;62.30;;;3.02;42.20;98343.75;5061398;28;20047;-45
2023/04/04 04:52:43;;;;;;;3.85;2.55;;;-0.50;62.00;;;3.03;42.02;98336.72;5060803;28;20055;-44
2023/04/04 04:55:12;;;;;;;4.50;2.60;;;-0.50;62.80;;;3.03;42.20;98337.56;5057717;28;20045;-43
2023/04/04 04:57:47;;;;;;;5.43;2.83;;;-0.50;62.00;;;3.05;42.18;98337.47;5058458;28;20045;-44
2023/04/04 05:00:21;;;;;;;5.40;2.73;;;-0.50;62.10;;;3.05;42.00;98337.47;5061239;28;20044;-47
2023/04/04 05:02:49;;;;;;;5.50;2.50;;;-0.40;62.20;;;3.05;42.52;98340.09;5059126;28;20055;-45
2023/04/04 05:05:27;;;;;;;3.87;2.40;;;-0.40;62.20;;;3.06;42.46;98337.34;5057761;28;20048;-45
2023/04/04 05:08:03;;;;;;;5.43;2.73;;;-0.40;62.00;;;3.06;42.36;98334.72;5045101;28;20051;-44
2023/04/04 05:10:30;;;;;;;4.60;2.57;;;-0.40;61.80;;;3.08;42.35;98347.78;5060880;28;20048;-44
2023/04/04 05:12:59;;;;;;;4.30;2.73;;;-0.40;62.00;;;3.07;42.35;98344.31;5041579;28;20506;-46
2023/04/04 05:15:32;;;;;;;5.40;2.57;;;-0.40;62.10;;;3.04;42.35;98355.03;5061315;28;20068;-46
2023/04/04 05:17:59;;;;;;;4.60;2.97;;;-0.50;62.20;;;3.04;42.33;98356.81;5080602;28;20045;-45
2023/04/04 05:20:27;;;;;;;3.57;2.43;;;-0.50;62.60;;;3.05;42.53;98348.00;5065036;28;20059;-45
2023/04/04 05:22:57;;;;;;;8.33;3.57;;;-0.50;62.70;;;3.03;42.43;98348.09;5062007;28;20536;-44
2023/04/04 05:25:33;;;;;;;2.87;2.50;;;-0.50;62.70;;;3.05;42.50;98348.00;5042467;28;20049;-46
2023/04/04 05:28:02;;;;;;;5.37;2.50;;;-0.50;62.80;;;3.09;42.80;98347.69;5081052;28;20045;-44
2023/04/04 05:30:31;;;;;;;7.73;2.33;;;-0.40;62.70;;;3.12;42.82;98350.16;5064255;28;20048;-45
2023/04/04 05:33:28;;;;;;;5.57;2.67;;;-0.30;62.60;;;3.17;42.36;98357.75;5045612;28;20056;-45
2023/04/04 05:36:04;;;;;;;6.23;2.40;;;-0.30;62.30;;;3.19;42.22;98352.38;5064450;28;20501;-45
2023/04/04 05:38:35;;;;;;;5.80;2.93;;;-0.30;63.20;;;3.19;42.58;98353.22;5064989;28;20048;-43
2023/04/04 05:41:03;;;;;;;3.97;2.30;;;-0.30;62.40;;;3.21;42.63;98351.34;5062812;28;20048;-43
2023/04/04 05:43:30;;;;;;;7.93;2.60;;;-0.30;62.50;;;3.20;42.36;98356.69;5062185;28;20044;-44
2023/04/04 05:46:03;;;;;;;5.37;2.47;;;-0.30;62.60;;;3.22;42.62;98358.31;5064075;28;20044;-48
2023/04/04 05:48:37;;;;;;;9.35;2.55;;;-0.30;62.60;;;3.23;42.48;98354.72;5063902;28;20037;-45
2023/04/04 05:51:04;;;;;;;4.97;2.37;;;-0.20;62.60;;;3.26;42.58;98351.91;5062424;28;20494;-45
2023/04/04 05:53:55;;;;;;;5.17;2.63;;;-0.20;62.80;;;3.26;42.72;98358.97;5061767;28;20528;-45
2023/04/04 05:56:28;;;;;;;7.05;3.33;;;-0.20;62.80;;;3.31;42.93;98352.44;5060615;28;20048;-49
2023/04/04 05:58:57;;;;;;;4.20;2.40;;;-0.10;62.80;;;3.36;42.97;98360.03;5062639;28;20052;-45
2023/04/04 06:01:28;;;;;;;6.47;2.50;;;0.00;62.70;;;3.44;43.06;98362.19;5064085;28;20404;-47
2023/04/04 06:03:59;;;;;;;4.73;3.00;;;0.00;63.10;;;3.48;42.88;98367.16;5061439;28;20056;-47
2023/04/04 06:06:27;;;;;;;7.40;3.43;;;0.10;62.40;;;3.52;42.84;98370.44;5041004;28;20045;-45
2023/04/04 06:08:55;;;;;;;9.63;4.90;;;0.10;62.10;;;3.54;42.70;98366.75;5062391;28;20045;-46
2023/04/04 06:11:22;;;;;;;6.20;4.83;;;0.10;62.20;;;3.58;42.96;98369.19;5065179;28;20036;-43
2023/04/04 06:13:53;;;;;;;8.83;4.90;;;0.10;61.40;;;3.61;42.53;98367.22;5062060;28;20044;-45
2023/04/04 06:16:23;;;;;;;9.03;5.67;;;0.20;61.40;;;3.65;42.90;98373.97;5060471;28;20037;-44
2023/04/04 06:18:51;;;;;;;9.33;5.33;;;0.20;61.60;;;3.70;42.65;98376.28;5061921;28;20071;-44
2023/04/04 06:21:19;;;;;;;6.70;4.60;;;0.30;61.40;;;3.74;42.18;98370.72;5063761;28;20047;-45
2023/04/04 06:23:46;;;;;;;4.87;3.60;;;0.30;61.50;;;3.79;42.50;98367.78;5062441;28;20048;-43
2023/04/04 06:26:14;;;;;;;3.70;2.97;;;0.40;61.40;;;3.84;42.46;98370.09;5059374;28;20045;-46
2023/04/04 06:28:48;;;;;;;7.83;3.60;;;0.40;61.10;;;3.87;42.55;98376.00;5059850;28;20056;-49
2023/04/04 06:31:18;;;;;;;4.50;3.10;;;0.50;60.80;;;3.88;42.67;98367.19;5047594;28;20047;-45
2023/04/04 06:33:47;;;;;;;8.87;4.03;;;0.40;60.60;;;3.93;42.44;98367.69;5062351;28;20040;-45
2023/04/04 06:36:17;;;;;;;6.77;3.50;;;0.50;60.10;;;3.97;41.99;98368.34;5059974;28;20506;-45
2023/04/04 06:38:46;;;;;;;7.63;2.93;;;0.60;60.20;;;3.98;42.01;98369.22;5060358;28;20116;-44
2023/04/04 06:41:20;;;;;;;5.50;3.20;;;0.50;60.50;;;4.03;42.38;98375.00;5063696;28;20051;-46
2023/04/04 06:43:50;;;;;;;7.47;3.10;;;0.60;60.30;;;4.07;42.54;98368.56;5061746;28;20059;-45
2023/04/04 06:46:17;;;;;;;5.50;3.70;;;0.70;59.50;;;4.11;42.62;98372.69;5060716;28;20080;-47
2023/04/04 06:48:45;;;;;;;6.60;3.50;;;0.70;60.00;;;4.13;42.04;98371.66;5043967;28;20045;-45
2023/04/04 06:51:12;;;;;;;6.03;3.43;;;0.80;59.70;;;4.19;42.35;98372.19;5062057;28;20032;-45
2023/04/04 06:53:44;;;;;;;7.90;3.23;;;0.80;59.90;;;4.23;41.92;98366.63;5046716;28;20052;-45
2023/04/04 06:56:12;;;;;;;5.50;3.50;;;0.80;59.70;;;4.27;42.33;98362.81;5059667;28;20041;-45
2023/04/04 06:58:40;;;;;;;6.33;3.27;;;0.90;59.30;;;4.34;42.31;98360.59;5056473;28;20056;-44
2023/04/04 07:01:07;;;;;;;6.20;3.53;;;1.00;59.20;;;4.38;42.23;98364.75;5064158;28;20036;-44
2023/04/04 07:03:35;;;;;;;6.77;3.40;;;1.00;58.50;;;4.43;41.69;98362.63;5064130;28;20421;-45
2023/04/04 07:06:03;;;;;;;4.77;4.20;;;1.10;58.40;;;4.47;41.81;98363.25;5061920;28;20048;-46
2023/04/04 07:08:34;;;;;;;4.37;3.20;;;1.10;57.90;;;4.52;41.96;98361.16;5061237;28;20068;-45
2023/04/04 07:11:05;;;;;;;6.03;3.23;;;1.20;57.60;;;4.57;41.78;98363.47;5063461;28;20063;-44
2023/04/04 07:13:34;;;;;;;6.07;3.30;;;1.30;57.50;;;4.64;41.66;98362.09;5062293;28;20051;-44
2023/04/04 07:16:01;;;;;;;4.27;3.23;;;1.40;57.50;;;4.69;41.52;98363.47;5061950;28;20039;-44
2023/04/04 07:18:29;;;;;;;4.87;2.80;;;1.50;57.00;;;4.74;41.54;98366.59;5059174;28;20056;-43
2023/04/04 07:20:57;;;;;;;9.07;3.03;;;1.50;55.40;;;4.79;41.69;98368.06;5061159;28;20049;-46
2023/04/04 07:23:24;;;;;;;5.47;3.07;;;1.50;56.70;;;4.87;41.40;98371.03;5063792;28;20048;-44
2023/04/04 07:25:52;;;;;;;7.33;3.20;;;1.60;55.90;;;4.87;40.95;98369.25;5063243;28;20048;-45
2023/04/04 07:28:20;;;;;;;3.93;3.03;;;1.70;55.70;;;4.92;40.75;98368.91;5060491;28;20041;-43
2023/04/04 07:30:48;;;;;;;3.17;2.30;;;1.80;54.90;;;4.97;41.25;98364.16;5060672;28;20505;-45
2023/04/04 07:33:15;;;;;;;4.40;2.90;;;1.80;55.00;;;5.04;41.19;98365.44;5063464;28;20051;-43
2023/04/04 07:35:43;;;;;;;4.90;2.90;;;1.90;55.00;;;5.11;40.06;98357.91;5063879;28;20502;-43
2023/04/04 07:38:11;;;;;;;5.23;2.43;;;1.90;54.40;;;5.15;40.51;98364.63;5059876;28;20041;-46
2023/04/04 07:40:39;;;;;;;5.60;3.30;;;1.90;54.20;;;5.21;40.16;98361.56;5060847;28;20037;-45
2023/04/04 07:43:07;;;;;;;5.03;3.23;;;2.00;53.90;;;5.25;39.54;98363.06;5062628;28;20059;-44
2023/04/04 07:45:35;;;;;;;3.60;2.60;;;2.00;53.00;;;5.25;39.34;98359.53;5063740;28;20052;-44
2023/04/04 07:48:03;;;;;;;3.33;2.60;;;2.10;53.00;;;5.26;39.76;98364.72;5061547;28;20044;-44
2023/04/04 07:50:30;;;;;;;3.37;2.80;;;2.10;52.90;;;5.33;40.06;98357.19;5060485;28;20406;-44
2023/04/04 07:52:58;;;;;;;3.13;2.27;;;2.20;51.70;;;5.39;39.95;98362.06;5059681;28;20045;-43
2023/04/04 07:55:26;;;;;;;3.50;2.83;;;2.30;52.50;;;5.45;39.54;98358.13;5062048;28;20095;-43
2023/04/04 07:57:53;;;;;;;4.37;2.80;;;2.30;52.80;;;5.51;40.00;98360.31;5061193;28;20044;-45
2023/04/04 08:00:24;;;;;;;4.17;2.40;;;2.30;52.40;;;5.55;39.53;98359.13;5060054;28;20045;-43
2023/04/04 08:02:53;;;;;;;4.40;2.43;;;2.40;52.70;;;5.61;38.84;98366.59;5060044;28;20044;-45
2023/04/04 08:05:22;;;;;;;6.50;2.70;;;2.50;51.50;;;5.69;38.97;98361.59;5061847;28;20052;-44
2023/04/04 08:07:50;;;;;;;3.37;2.70;;;2.50;51.80;;;5.77;38.73;98357.56;5062891;28;20045;-45
2023/04/04 08:10:17;;;;;;;3.63;2.40;;;2.60;51.60;;;5.83;39.37;98359.72;5059604;28;20352;-45
2023/04/04 08:12:45;;;;;;;4.77;2.67;;;2.70;51.80;;;5.88;39.04;98353.16;5059433;28;20052;-43
2023/04/04 08:15:13;;;;;;;3.83;3.30;;;2.70;51.70;;;5.94;39.11;98351.03;5063260;28;20044;-44
2023/04/04 08:17:42;;;;;;;4.43;2.73;;;2.70;51.00;;;5.93;38.90;98347.50;5063174;28;20055;-44
2023/04/04 08:20:11;;;;;;;5.23;2.97;;;2.80;50.80;;;5.97;38.21;98354.31;5060277;28;20033;-45
2023/04/04 08:22:41;;;;;;;4.17;2.70;;;2.80;48.70;;;6.02;38.34;98352.16;5059168;28;20041;-45
2023/04/04 08:25:10;;;;;;;3.27;2.40;;;2.80;50.50;;;6.08;38.14;98353.50;5061083;28;20045;-43
2023/04/04 08:27:42;;;;;;;4.47;2.73;;;2.90;50.30;;;6.12;37.81;98352.28;5063193;28;20045;-46
2023/04/04 08:30:13;;;;;;;6.07;2.67;;;3.00;49.90;;;6.18;38.30;98356.28;5059665;28;20044;-44
2023/04/04 08:32:41;;;;;;;4.27;2.53;;;3.00;50.00;;;6.21;37.90;98351.59;5059044;28;20048;-45
2023/04/04 08:35:08;;;;;;;4.10;2.73;;;3.10;50.00;;;6.28;37.69;98344.03;5062032;28;20045;-46
2023/04/04 08:37:37;;;;;;;3.13;2.20;;;3.10;50.20;;;6.33;38.45;98349.00;5061736;28;20048;-45
2023/04/04 08:40:05;;;;;;;5.00;2.73;;;3.20;50.20;;;6.34;37.57;98348.03;5060566;28;20048;-46
2023/04/04 08:42:35;;;;;;;5.67;2.57;;;3.20;49.60;;;6.35;38.09;98342.63;5059092;28;20434;-46
2023/04/04 08:45:04;;;;;;;3.30;2.60;;;3.30;49.20;;;6.40;37.71;98344.94;5041399;28;20060;-47
2023/04/04 08:47:34;;;;;;;5.10;3.60;;;3.30;49.20;;;6.46;37.72;98352.38;5060900;28;20033;-48
2023/04/04 08:50:07;;;;;;;3.97;2.53;;;3.30;50.10;;;6.50;38.17;98346.72;5060793;28;20044;-47
2023/04/04 08:52:35;;;;;;;5.93;2.63;;;3.40;49.50;;;6.55;38.02;98354.31;5058081;28;20040;-44
2023/04/04 08:55:08;;;;;;;4.53;2.50;;;3.50;49.20;;;6.58;37.93;98350.59;5059733;28;20517;-48
2023/04/04 08:57:36;;;;;;;3.53;2.67;;;3.50;48.90;;;6.64;37.84;98356.25;5062531;28;20413;-44
2023/04/04 09:00:06;;;;;;;5.40;3.53;;;3.50;48.70;;;6.73;37.87;98364.41;5059587;28;20041;-46
2023/04/04 09:02:48;;;;;;;5.07;2.50;;;3.60;48.50;;;6.78;37.36;98355.16;5058786;28;20045;-47
2023/04/04 09:05:17;;;;;;;4.17;2.70;;;3.60;47.30;;;6.88;37.34;98356.16;5059718;28;20112;-47
2023/04/04 09:07:45;;;;;;;3.77;2.90;;;3.70;47.70;;;6.94;36.43;98353.97;5057773;28;20052;-46
2023/04/04 09:10:12;;;;;;;4.07;2.40;;;3.80;47.80;;;6.97;36.19;98351.09;5061897;28;20068;-45
2023/04/04 09:12:46;;;;;;;4.80;3.13;;;3.90;47.10;;;7.05;37.07;98356.59;5062083;28;20055;-46
2023/04/04 09:15:14;;;;;;;4.50;2.63;;;3.90;47.50;;;7.15;36.82;98357.56;5059454;28;20036;-46
2023/04/04 09:17:42;;;;;;;5.87;2.83;;;4.10;47.20;;;7.21;36.08;98362.38;5057934;28;20502;-46
2023/04/04 09:20:35;;;;;;;3.60;2.33;;;4.10;46.50;;;7.24;36.56;98358.63;5060367;28;20045;-45
2023/04/04 09:23:12;;;;;;;4.63;2.73;;;4.20;44.80;;;7.36;36.37;98362.09;5060454;28;20049;-47
2023/04/04 09:25:54;;;;;;;4.90;3.03;;;4.30;44.70;;;7.39;36.50;98348.63;5059128;28;20049;-45
2023/04/04 09:28:24;;;;;;;5.77;2.63;;;4.30;45.10;;;7.42;36.04;98351.84;5051396;28;20037;-48
2023/04/04 09:30:52;;;;;;;4.17;2.50;;;4.40;45.50;;;7.46;35.54;98345.38;5058988;28;20041;-45
2023/04/04 09:33:22;;;;;;;3.63;2.50;;;4.40;45.50;;;7.48;35.47;98356.69;5058647;28;20286;-46
2023/04/04 09:36:11;;;;;;;7.43;2.70;;;4.50;45.40;;;7.53;36.18;98353.63;5058534;28;20442;-47
2023/04/04 09:38:44;;;;;;;5.63;2.73;;;4.50;43.70;;;7.60;35.73;98356.63;5052317;28;20044;-49
2023/04/04 09:41:17;;;;;;;4.60;2.93;;;4.50;45.00;;;7.60;35.64;98346.88;5059711;28;20056;-46
2023/04/04 09:43:45;;;;;;;4.60;2.73;;;4.60;44.10;;;7.62;35.31;98350.25;5061457;28;20049;-46
2023/04/04 09:46:14;;;;;;;4.27;2.60;;;4.60;45.40;;;7.62;35.08;98346.75;5058070;28;20058;-48
2023/04/04 09:48:52;;;;;;;4.60;2.33;;;4.60;42.50;;;7.61;34.83;98351.19;5059652;28;20524;-46
2023/04/04 09:51:20;;;;;;;3.87;2.63;;;4.60;44.00;;;7.60;35.10;98346.88;5055904;28;20037;-48
2023/04/04 09:53:48;;;;;;;8.23;4.20;;;4.60;45.20;;;7.64;34.87;98342.19;5059073;28;20037;-46
2023/04/04 09:56:17;;;;;;;4.67;2.70;;;4.60;43.50;;;7.62;35.59;98346.75;5062448;28;20037;-48
2023/04/04 09:58:49;;;;;;;6.30;3.00;;;4.70;44.80;;;7.65;35.31;98354.44;5062788;28;20401;-44
2023/04/04 10:01:30;;;;;;;4.73;3.17;;;4.70;43.90;;;7.69;34.54;98348.75;5055005;28;20048;-45
2023/04/04 10:03:58;;;;;;;4.20;3.77;;;4.70;43.70;;;7.68;35.01;98355.03;5061764;28;20057;-46
2023/04/04 10:06:26;;;;;;;4.47;2.63;;;4.80;44.40;;;7.77;34.94;98353.44;5065157;28;20409;-45
2023/04/04 10:08:57;;;;;;;2.80;2.00;;;4.80;44.80;;;7.83;34.20;98346.78;5065169;28;20375;-44
2023/04/04 10:11:32;;;;;;;5.50;2.70;;;4.80;43.60;;;7.87;34.95;98349.06;5061473;28;20040;-45
2023/04/04 10:14:02;;;;;;;5.87;3.77;;;4.90;43.70;;;7.94;34.58;98353.88;5061833;28;20045;-46
2023/04/04 10:16:35;;;;;;;3.63;2.60;;;4.90;43.60;;;7.98;34.21;98350.81;5066272;28;20041;-47
2023/04/04 10:19:06;;;;;;;7.63;2.87;;;5.00;42.90;;;8.02;34.49;98348.75;5063942;28;20048;-47
2023/04/04 10:21:35;;;;;;;3.07;2.60;;;5.00;43.10;;;8.05;34.31;98343.22;5062343;28;20280;-46
2023/04/04 10:24:08;;;;;;;4.40;2.70;;;5.00;43.60;;;8.09;34.11;98345.47;5062213;28;20049;-44
2023/04/04 10:26:36;;;;;;;4.00;2.40;;;5.00;42.70;;;8.06;33.85;98344.88;5062523;28;20048;-44
2023/04/04 10:29:04;;;;;;;5.87;2.80;;;5.00;42.90;;;8.11;34.00;98349.81;5062631;28;20413;-45
2023/04/04 10:31:37;;;;;;;6.40;2.80;;;5.00;42.90;;;8.13;34.13;98350.53;5065923;28;20040;-46
2023/04/04 10:34:24;;;;;;;5.93;3.40;;;5.10;43.40;;;8.19;34.10;98344.69;5064477;28;20049;-44
2023/04/04 10:37:02;;;;;;;4.20;2.60;;;5.20;43.10;;;8.25;33.93;98341.53;5062547;28;20044;-44
2023/04/04 10:40:00;;;;;;;4.40;4.00;;;5.30;42.80;;;8.29;34.36;98338.47;5055436;28;20037;-45
2023/04/04 10:42:37;;;;;;;4.50;3.10;;;5.30;43.00;;;8.28;33.60;98326.19;5053956;28;20052;-45
2023/04/04 10:45:09;;;;;;;5.33;2.53;;;5.30;41.80;;;8.28;33.35;98333.31;5061526;28;20049;-44